Time;durP1;ratioP1;P1;durP2;ratioP2;P2;SDS_P1;SDS_P2;PMS_P1;PMS_P2;Temp;Humidity;BMP_temperature;BMP_pressure;BME280_temperature;BME280_humidity;BME280_pressure;Samples;Min_cycle;Max_cycle;Signal;HPM_P1;HPM_P2
2023/06/26 00:01:33;;;;;;;13.15;3.58;;;;;;;;;;5138726;27;20209;-59
2023/06/26 00:04:00;;;;;;;8.18;3.28;;;;;;;;;;5138476;27;20232;-58
2023/06/26 00:06:28;;;;;;;9.77;3.20;;;;;;;;;;5138898;27;20674;-58
2023/06/26 00:08:58;;;;;;;8.70;2.75;;;;;;;;;;5138202;27;20208;-58
2023/06/26 00:11:27;;;;;;;8.98;3.53;;;;;;;;;;5138191;27;20201;-58
2023/06/26 00:13:54;;;;;;;5.05;3.20;;;;;;;;;;5138417;27;20201;-58
2023/06/26 00:16:21;;;;;;;15.05;2.95;;;;;;;;;;5138574;27;20244;-58
2023/06/26 00:18:49;;;;;;;6.72;3.13;;;;;;;;;;5138071;27;20218;-59
2023/06/26 00:21:15;;;;;;;6.45;2.83;;;;;;;;;;5138516;27;20215;-58
2023/06/26 00:23:43;;;;;;;6.70;3.40;;;;;;;;;;5138210;27;20201;-58
2023/06/26 00:26:11;;;;;;;9.20;3.17;;;;;;;;;;5138217;27;20209;-58
2023/06/26 00:28:38;;;;;;;15.80;3.63;;;;;;;;;;5138199;27;20571;-58
2023/06/26 00:31:05;;;;;;;11.68;2.95;;;;;;;;;;5138165;27;20687;-58
2023/06/26 00:33:32;;;;;;;11.63;3.35;;;;;;;;;;5137735;27;20656;-58
2023/06/26 00:35:59;;;;;;;8.25;3.42;;;;;;;;;;5137718;27;20201;-58
2023/06/26 00:38:27;;;;;;;7.72;3.40;;;;;;;;;;5137721;27;20659;-58
2023/06/26 00:40:54;;;;;;;12.70;3.05;;;;;;;;;;5137679;27;20752;-58
2023/06/26 00:43:22;;;;;;;5.50;3.35;;;;;;;;;;5119297;27;20197;-58
2023/06/26 00:45:49;;;;;;;8.27;3.67;;;;;;;;;;5137479;27;20221;-58
2023/06/26 00:48:18;;;;;;;5.32;3.92;;;;;;;;;;5137569;27;20209;-58
2023/06/26 00:50:45;;;;;;;12.07;4.13;;;;;;;;;;5119403;27;20255;-57
2023/06/26 00:53:12;;;;;;;6.78;3.65;;;;;;;;;;5119804;27;20197;-58
2023/06/26 00:55:39;;;;;;;5.47;3.30;;;;;;;;;;5137660;27;20197;-58
2023/06/26 00:58:08;;;;;;;7.82;3.33;;;;;;;;;;5153228;27;20205;-58
2023/06/26 01:00:35;;;;;;;7.78;3.58;;;;;;;;;;5118879;27;20217;-57
2023/06/26 01:03:03;;;;;;;4.65;3.08;;;;;;;;;;5119243;27;20288;-57
2023/06/26 01:05:31;;;;;;;7.18;3.38;;;;;;;;;;5136974;27;20703;-57
2023/06/26 01:07:58;;;;;;;5.97;3.92;;;;;;;;;;5137355;27;20194;-58
2023/06/26 01:10:27;;;;;;;5.70;3.05;;;;;;;;;;5119168;27;20289;-57
2023/06/26 01:12:55;;;;;;;6.35;2.90;;;;;;;;;;5102302;27;20649;-57
2023/06/26 01:15:22;;;;;;;9.68;2.78;;;;;;;;;;5119452;27;20209;-58
2023/06/26 01:17:51;;;;;;;3.28;2.22;;;;;;;;;;5102305;27;20203;-57
2023/06/26 01:20:19;;;;;;;6.20;2.95;;;;;;;;;;5118984;27;20696;-57
2023/06/26 01:23:01;;;;;;;7.55;3.15;;;;;;;;;;5119021;27;20611;-57
2023/06/26 01:26:06;;;;;;;9.57;3.22;;;;;;;;;;5118943;27;20655;-58
2023/06/26 01:28:39;;;;;;;12.38;3.70;;;;;;;;;;5136709;27;20298;-57
2023/06/26 01:31:07;;;;;;;10.38;2.88;;;;;;;;;;5118881;27;20220;-58
2023/06/26 01:33:34;;;;;;;22.30;4.47;;;;;;;;;;5101616;27;20201;-57
2023/06/26 01:36:02;;;;;;;6.82;3.88;;;;;;;;;;5136295;27;20201;-58
2023/06/26 01:38:29;;;;;;;5.55;3.72;;;;;;;;;;5101383;27;20559;-58
2023/06/26 01:40:57;;;;;;;6.53;4.20;;;;;;;;;;5117794;27;20221;-59
2023/06/26 01:43:36;;;;;;;7.78;3.15;;;;;;;;;;5136410;27;20221;-58
2023/06/26 01:46:32;;;;;;;10.00;3.55;;;;;;;;;;5136401;27;20193;-57
2023/06/26 01:49:22;;;;;;;17.13;4.38;;;;;;;;;;5078981;27;20280;-58
2023/06/26 01:52:01;;;;;;;5.15;3.22;;;;;;;;;;5101185;27;20529;-58
2023/06/26 01:54:30;;;;;;;6.22;3.78;;;;;;;;;;5118164;27;20607;-57
2023/06/26 01:56:58;;;;;;;6.80;3.67;;;;;;;;;;5117784;27;20205;-57
2023/06/26 01:59:25;;;;;;;7.57;3.88;;;;;;;;;;5100635;27;20586;-57
2023/06/26 02:01:54;;;;;;;5.05;3.47;;;;;;;;;;5117961;27;20243;-58
2023/06/26 02:04:21;;;;;;;10.45;4.18;;;;;;;;;;5083324;27;20679;-57
2023/06/26 02:06:48;;;;;;;4.78;3.15;;;;;;;;;;5135960;27;20701;-57
2023/06/26 02:09:15;;;;;;;5.60;3.40;;;;;;;;;;5117565;27;20201;-58
2023/06/26 02:11:43;;;;;;;10.18;3.33;;;;;;;;;;5135327;27;20254;-58
2023/06/26 02:14:12;;;;;;;5.60;3.50;;;;;;;;;;5135727;27;20296;-57
2023/06/26 02:16:39;;;;;;;5.38;3.10;;;;;;;;;;5117293;27;20201;-58
2023/06/26 02:19:06;;;;;;;12.35;3.63;;;;;;;;;;5135764;27;20276;-58
2023/06/26 02:21:35;;;;;;;11.23;3.10;;;;;;;;;;5135714;27;20225;-58
2023/06/26 02:24:02;;;;;;;7.28;2.83;;;;;;;;;;5117122;27;20209;-57
2023/06/26 02:26:33;;;;;;;12.75;2.95;;;;;;;;;;5135685;27;20197;-57
2023/06/26 02:29:00;;;;;;;8.20;2.70;;;;;;;;;;5135279;27;20205;-58
2023/06/26 02:31:27;;;;;;;11.43;3.17;;;;;;;;;;5135236;27;20239;-57
2023/06/26 02:33:55;;;;;;;10.32;2.90;;;;;;;;;;5117157;27;20197;-58
2023/06/26 02:36:22;;;;;;;9.88;2.92;;;;;;;;;;5135258;27;20601;-57
2023/06/26 02:38:49;;;;;;;10.30;3.15;;;;;;;;;;5135637;27;20197;-58
2023/06/26 02:41:17;;;;;;;14.70;2.75;;;;;;;;;;5117022;27;20226;-58
2023/06/26 02:43:44;;;;;;;6.00;2.83;;;;;;;;;;5151457;27;20220;-58
2023/06/26 02:46:12;;;;;;;10.88;3.35;;;;;;;;;;5117076;27;20209;-58
2023/06/26 02:48:39;;;;;;;10.63;2.92;;;;;;;;;;5117005;27;20201;-57
2023/06/26 02:51:07;;;;;;;15.02;3.30;;;;;;;;;;5116974;27;20205;-58
2023/06/26 02:53:34;;;;;;;7.35;3.38;;;;;;;;;;5116756;27;20540;-57
2023/06/26 02:56:02;;;;;;;8.60;2.92;;;;;;;;;;5117171;27;20206;-57
2023/06/26 02:58:29;;;;;;;5.60;3.00;;;;;;;;;;5116758;27;20217;-57
2023/06/26 03:00:56;;;;;;;8.60;3.33;;;;;;;;;;5116788;27;20293;-57
2023/06/26 03:03:24;;;;;;;5.90;3.15;;;;;;;;;;5116614;27;20288;-58
2023/06/26 03:05:51;;;;;;;5.22;2.97;;;;;;;;;;5116704;27;20273;-58
2023/06/26 03:08:18;;;;;;;4.78;3.00;;;;;;;;;;5116532;27;20198;-57
2023/06/26 03:10:46;;;;;;;6.43;2.97;;;;;;;;;;5116904;27;20209;-57
2023/06/26 03:13:13;;;;;;;5.90;2.95;;;;;;;;;;5134735;27;20675;-58
2023/06/26 03:15:41;;;;;;;8.90;3.22;;;;;;;;;;5116805;27;20676;-59
2023/06/26 03:18:09;;;;;;;6.07;3.25;;;;;;;;;;5116434;27;20250;-57
2023/06/26 03:20:36;;;;;;;5.80;4.10;;;;;;;;;;5106660;28;20222;-58
2023/06/26 03:23:04;;;;;;;8.38;4.20;;;;;;;;;;5111193;28;20221;-59
2023/06/26 03:25:31;;;;;;;13.50;4.32;;;;;;;;;;5112182;28;20209;-60
2023/06/26 03:28:17;;;;;;;6.43;4.15;;;;;;;;;;5112325;28;20213;-57
2023/06/26 03:30:44;;;;;;;6.93;4.47;;;;;;;;;;5098322;27;20201;-58
2023/06/26 03:33:11;;;;;;;8.40;4.78;;;;;;;;;;5127814;27;20236;-61
2023/06/26 03:35:39;;;;;;;9.65;4.57;;;;;;;;;;5114500;28;20201;-58
2023/06/26 03:38:09;;;;;;;11.20;5.30;;;;;;;;;;5113854;28;20217;-57
2023/06/26 03:40:37;;;;;;;7.78;4.75;;;;;;;;;;5113565;28;20578;-58
2023/06/26 03:43:04;;;;;;;8.70;4.50;;;;;;;;;;5131636;27;20193;-58
2023/06/26 03:45:42;;;;;;;8.77;5.28;;;;;;;;;;5113903;27;20246;-57
2023/06/26 03:48:09;;;;;;;9.32;4.85;;;;;;;;;;5110473;27;20239;-59
2023/06/26 03:50:37;;;;;;;13.55;5.60;;;;;;;;;;5130040;27;20664;-57
2023/06/26 03:53:04;;;;;;;9.02;5.47;;;;;;;;;;5133758;28;20197;-58
2023/06/26 03:55:32;;;;;;;12.05;5.53;;;;;;;;;;5126461;27;20233;-60
2023/06/26 03:57:59;;;;;;;10.32;5.88;;;;;;;;;;5128141;27;20193;-59
2023/06/26 04:00:27;;;;;;;14.77;5.63;;;;;;;;;;5106895;28;20291;-58
2023/06/26 04:02:55;;;;;;;14.85;6.28;;;;;;;;;;5095541;28;20657;-58
2023/06/26 04:05:23;;;;;;;10.25;5.60;;;;;;;;;;5099760;28;20713;-59
2023/06/26 04:07:51;;;;;;;13.57;6.80;;;;;;;;;;5098143;27;20210;-58
2023/06/26 04:10:20;;;;;;;14.15;7.10;;;;;;;;;;5096928;28;20206;-56
2023/06/26 04:12:48;;;;;;;18.45;7.47;;;;;;;;;;5101062;27;20208;-58
2023/06/26 04:15:15;;;;;;;15.75;7.72;;;;;;;;;;5127116;28;20217;-59
2023/06/26 04:17:42;;;;;;;16.25;7.85;;;;;;;;;;5123223;27;20221;-58
2023/06/26 04:20:10;;;;;;;12.77;7.63;;;;;;;;;;5118959;28;20249;-59
2023/06/26 04:22:37;;;;;;;13.55;6.70;;;;;;;;;;5123059;28;20320;-58
2023/06/26 04:25:04;;;;;;;14.32;7.53;;;;;;;;;;5112392;28;20221;-58
2023/06/26 04:27:31;;;;;;;13.40;7.47;;;;;;;;;;5125271;28;20213;-58
2023/06/26 04:30:02;;;;;;;12.88;6.88;;;;;;;;;;5128108;27;20225;-58
2023/06/26 04:32:29;;;;;;;13.93;6.70;;;;;;;;;;5133219;28;20243;-58
2023/06/26 04:34:56;;;;;;;15.63;7.30;;;;;;;;;;5135785;27;20229;-58
2023/06/26 04:37:24;;;;;;;11.52;6.90;;;;;;;;;;5136848;27;20217;-58
2023/06/26 04:39:51;;;;;;;12.27;7.50;;;;;;;;;;5136433;27;20274;-58
2023/06/26 04:42:21;;;;;;;12.20;7.65;;;;;;;;;;5137214;27;20309;-58
2023/06/26 04:44:48;;;;;;;11.00;7.30;;;;;;;;;;5136269;27;20227;-58
2023/06/26 04:47:16;;;;;;;11.60;7.38;;;;;;;;;;5131817;27;20320;-58
2023/06/26 04:49:45;;;;;;;13.05;6.70;;;;;;;;;;5135449;27;20700;-59
2023/06/26 04:52:13;;;;;;;14.55;7.13;;;;;;;;;;5127283;27;20229;-61
2023/06/26 04:54:41;;;;;;;9.00;5.80;;;;;;;;;;5128170;27;20217;-60
2023/06/26 04:57:11;;;;;;;10.35;5.75;;;;;;;;;;5135137;27;20221;-59
2023/06/26 04:59:39;;;;;;;10.07;6.13;;;;;;;;;;5134644;27;20217;-60
2023/06/26 05:02:06;;;;;;;8.18;5.97;;;;;;;;;;5134716;27;20603;-58
2023/06/26 05:04:33;;;;;;;9.73;4.93;;;;;;;;;;5135016;27;20221;-58
2023/06/26 05:07:00;;;;;;;13.27;6.28;;;;;;;;;;5136702;27;20225;-58
2023/06/26 05:09:28;;;;;;;9.45;5.38;;;;;;;;;;5136324;27;20214;-59
2023/06/26 05:11:55;;;;;;;7.53;4.82;;;;;;;;;;5136675;27;20590;-58
2023/06/26 05:14:22;;;;;;;11.85;4.57;;;;;;;;;;5136178;27;20217;-58
2023/06/26 05:16:51;;;;;;;9.70;4.57;;;;;;;;;;5136225;27;20247;-58
2023/06/26 05:19:18;;;;;;;7.15;4.50;;;;;;;;;;5136661;27;20201;-56
2023/06/26 05:21:46;;;;;;;7.03;4.35;;;;;;;;;;5135701;27;20720;-58
2023/06/26 05:24:15;;;;;;;9.07;4.70;;;;;;;;;;5134863;27;20234;-59
2023/06/26 05:26:43;;;;;;;7.43;3.92;;;;;;;;;;5134521;27;20200;-57
2023/06/26 05:29:10;;;;;;;6.95;4.07;;;;;;;;;;5135213;27;20219;-58
2023/06/26 05:31:41;;;;;;;4.35;3.70;;;;;;;;;;5134548;27;20228;-58
2023/06/26 05:34:10;;;;;;;5.90;3.42;;;;;;;;;;5134720;27;20197;-58
2023/06/26 05:36:38;;;;;;;6.07;3.50;;;;;;;;;;5116506;27;20327;-58
2023/06/26 05:39:06;;;;;;;4.57;3.03;;;;;;;;;;5117902;27;20208;-57
2023/06/26 05:41:33;;;;;;;4.78;2.80;;;;;;;;;;5136204;27;20227;-57
2023/06/26 05:44:00;;;;;;;7.18;2.78;;;;;;;;;;5136648;27;20205;-58
2023/06/26 05:46:27;;;;;;;4.78;2.53;;;;;;;;;;5135140;27;20701;-58
2023/06/26 05:48:54;;;;;;;3.25;2.13;;;;;;;;;;5136239;27;20587;-58
2023/06/26 05:51:22;;;;;;;3.08;1.95;;;;;;;;;;5136053;27;20198;-58
2023/06/26 05:53:49;;;;;;;3.72;2.38;;;;;;;;;;5135133;27;20197;-58
2023/06/26 05:56:18;;;;;;;2.88;2.10;;;;;;;;;;5135695;27;20246;-58
2023/06/26 05:58:46;;;;;;;3.38;1.85;;;;;;;;;;5133123;27;20190;-60
2023/06/26 06:01:13;;;;;;;3.03;2.13;;;;;;;;;;5135649;27;20217;-58
2023/06/26 06:03:41;;;;;;;2.67;2.00;;;;;;;;;;5136259;27;20197;-58
2023/06/26 06:06:08;;;;;;;3.83;2.35;;;;;;;;;;5136181;27;20548;-57
2023/06/26 06:08:35;;;;;;;3.50;1.80;;;;;;;;;;5136602;27;20200;-57
2023/06/26 06:11:02;;;;;;;2.83;2.15;;;;;;;;;;5135963;27;20216;-58
2023/06/26 06:13:29;;;;;;;5.45;2.13;;;;;;;;;;5135900;27;20231;-61
2023/06/26 06:15:56;;;;;;;3.38;1.92;;;;;;;;;;5135919;27;20205;-48
2023/06/26 06:18:24;;;;;;;3.50;2.10;;;;;;;;;;5135978;27;20201;-47
2023/06/26 06:20:51;;;;;;;2.42;1.67;;;;;;;;;;5135391;27;20224;-47
2023/06/26 06:23:18;;;;;;;3.30;1.63;;;;;;;;;;5135057;27;20193;-52
2023/06/26 06:25:45;;;;;;;4.35;1.98;;;;;;;;;;5134398;27;20220;-48
2023/06/26 06:28:16;;;;;;;4.88;2.10;;;;;;;;;;5135272;27;20784;-60
2023/06/26 06:30:43;;;;;;;3.00;2.10;;;;;;;;;;5137001;27;20942;-52
2023/06/26 06:33:13;;;;;;;4.68;2.30;;;;;;;;;;5144562;27;20201;-54
2023/06/26 06:35:40;;;;;;;3.47;1.98;;;;;;;;;;5145440;27;20623;-55
2023/06/26 06:38:08;;;;;;;2.72;1.63;;;;;;;;;;5141655;27;20197;-53
2023/06/26 06:40:35;;;;;;;3.88;1.67;;;;;;;;;;5138713;27;20204;-53
2023/06/26 06:43:02;;;;;;;3.92;2.35;;;;;;;;;;5117233;27;20263;-52
2023/06/26 06:45:29;;;;;;;3.00;2.00;;;;;;;;;;5145730;27;20567;-53
2023/06/26 06:47:56;;;;;;;3.67;2.08;;;;;;;;;;5150244;27;20250;-55
2023/06/26 06:50:23;;;;;;;2.85;1.67;;;;;;;;;;5135076;27;20231;-57
2023/06/26 06:52:51;;;;;;;6.60;1.98;;;;;;;;;;5135099;27;20194;-55
2023/06/26 06:55:18;;;;;;;3.10;1.90;;;;;;;;;;5134775;27;20701;-56
2023/06/26 06:57:45;;;;;;;2.55;1.67;;;;;;;;;;5134480;27;20216;-57
2023/06/26 07:00:16;;;;;;;2.55;1.55;;;;;;;;;;5134939;27;20212;-57
2023/06/26 07:02:44;;;;;;;6.18;2.28;;;;;;;;;;5135333;27;20240;-58
2023/06/26 07:05:12;;;;;;;7.35;1.92;;;;;;;;;;5134583;27;20695;-57
2023/06/26 07:07:40;;;;;;;2.65;1.83;;;;;;;;;;5134481;27;20197;-53
2023/06/26 07:10:12;;;;;;;15.85;2.42;;;;;;;;;;5134219;27;20189;-56
2023/06/26 07:12:40;;;;;;;2.88;2.22;;;;;;;;;;5134222;27;20196;-52
2023/06/26 07:15:07;;;;;;;4.63;2.40;;;;;;;;;;5134692;27;20254;-54
2023/06/26 07:17:35;;;;;;;2.33;1.90;;;;;;;;;;5134813;27;20201;-55
2023/06/26 07:20:06;;;;;;;2.60;1.83;;;;;;;;;;5134876;27;20249;-53
2023/06/26 07:22:35;;;;;;;2.20;1.83;;;;;;;;;;5133970;27;20233;-50
2023/06/26 07:25:03;;;;;;;3.10;1.88;;;;;;;;;;5114415;27;20198;-55
2023/06/26 07:27:31;;;;;;;3.20;2.25;;;;;;;;;;5134179;27;20713;-48
2023/06/26 07:29:58;;;;;;;3.05;1.95;;;;;;;;;;5134714;27;20193;-49
2023/06/26 07:32:25;;;;;;;2.90;2.00;;;;;;;;;;5133860;27;20598;-54
2023/06/26 07:34:52;;;;;;;2.75;1.92;;;;;;;;;;5133506;27;20201;-54
2023/06/26 07:37:19;;;;;;;4.47;2.20;;;;;;;;;;5133844;27;20194;-51
2023/06/26 07:39:47;;;;;;;2.85;1.90;;;;;;;;;;5134095;28;20288;-54
2023/06/26 07:42:14;;;;;;;2.50;1.70;;;;;;;;;;5133884;28;20221;-53
2023/06/26 07:44:42;;;;;;;1.98;1.40;;;;;;;;;;5133294;28;20201;-49
2023/06/26 07:47:10;;;;;;;2.83;1.65;;;;;;;;;;5133486;28;20200;-54
2023/06/26 07:49:38;;;;;;;2.95;1.85;;;;;;;;;;5133515;28;20570;-55
2023/06/26 07:52:06;;;;;;;3.97;1.70;;;;;;;;;;5131067;28;20193;-52
2023/06/26 07:54:33;;;;;;;2.95;1.75;;;;;;;;;;5134583;28;20201;-51
2023/06/26 07:57:06;;;;;;;3.28;1.70;;;;;;;;;;5134070;28;20190;-48
2023/06/26 07:59:33;;;;;;;2.47;1.92;;;;;;;;;;5134762;28;20250;-48
2023/06/26 08:02:01;;;;;;;2.03;1.80;;;;;;;;;;5134322;28;20233;-47
2023/06/26 08:04:31;;;;;;;4.70;1.70;;;;;;;;;;5133546;28;20201;-48
2023/06/26 08:07:00;;;;;;;3.15;2.00;;;;;;;;;;5134140;28;20674;-49
2023/06/26 08:09:29;;;;;;;1.75;1.38;;;;;;;;;;5136255;27;20194;-49
2023/06/26 08:11:57;;;;;;;1.73;1.20;;;;;;;;;;5138505;27;20205;-49
2023/06/26 08:14:24;;;;;;;2.25;1.50;;;;;;;;;;5138235;27;20235;-49
2023/06/26 08:16:52;;;;;;;1.30;1.20;;;;;;;;;;5129013;27;20608;-48
2023/06/26 08:19:19;;;;;;;1.85;1.30;;;;;;;;;;5134598;27;20197;-51
2023/06/26 08:21:47;;;;;;;2.35;1.50;;;;;;;;;;5137417;27;20232;-53
2023/06/26 08:24:16;;;;;;;2.38;1.38;;;;;;;;;;5137816;27;20554;-53
2023/06/26 08:26:45;;;;;;;1.83;1.30;;;;;;;;;;5137867;27;20208;-54
2023/06/26 08:29:12;;;;;;;2.35;1.75;;;;;;;;;;5138002;27;20189;-52
2023/06/26 08:31:40;;;;;;;1.75;1.38;;;;;;;;;;5138184;27;20207;-51
2023/06/26 08:34:07;;;;;;;2.88;1.55;;;;;;;;;;5137975;27;20206;-50
2023/06/26 08:36:35;;;;;;;1.70;1.20;;;;;;;;;;5138063;27;20193;-54
2023/06/26 08:39:02;;;;;;;2.67;1.60;;;;;;;;;;5137644;27;20204;-54
2023/06/26 08:41:30;;;;;;;3.53;2.58;;;;;;;;;;5137097;27;20229;-50
2023/06/26 08:43:57;;;;;;;2.75;1.60;;;;;;;;;;5137427;27;20189;-50
2023/06/26 08:46:25;;;;;;;1.77;1.13;;;;;;;;;;5134857;27;20189;-54
2023/06/26 08:48:55;;;;;;;2.13;1.17;;;;;;;;;;5137159;27;20272;-52
2023/06/26 08:51:31;;;;;;;2.00;1.23;;;;;;;;;;5134403;27;20209;-53
2023/06/26 08:54:00;;;;;;;1.77;1.13;;;;;;;;;;5136656;27;20191;-51
2023/06/26 08:56:32;;;;;;;1.75;1.10;;;;;;;;;;5137063;27;20675;-50
2023/06/26 08:59:00;;;;;;;3.03;1.25;;;;;;;;;;5137086;27;20186;-51
2023/06/26 09:01:27;;;;;;;2.83;1.25;;;;;;;;;;5118665;27;20735;-50
2023/06/26 09:03:55;;;;;;;3.58;1.80;;;;;;;;;;5119298;27;20245;-47
2023/06/26 09:06:22;;;;;;;2.40;1.55;;;;;;;;;;5137573;27;20235;-48
2023/06/26 09:08:49;;;;;;;3.10;1.70;;;;;;;;;;5119139;27;20242;-48
2023/06/26 09:11:17;;;;;;;1.85;1.40;;;;;;;;;;5136872;27;20526;-50
2023/06/26 09:13:44;;;;;;;2.22;1.40;;;;;;;;;;5137358;27;20197;-49
2023/06/26 09:16:12;;;;;;;1.63;1.30;;;;;;;;;;5137201;27;20209;-48
2023/06/26 09:18:41;;;;;;;1.42;1.17;;;;;;;;;;5136848;27;20285;-49
2023/06/26 09:21:09;;;;;;;2.45;1.48;;;;;;;;;;5135680;27;20245;-48
2023/06/26 09:23:36;;;;;;;4.55;1.58;;;;;;;;;;5118933;27;20284;-48
2023/06/26 09:26:05;;;;;;;3.80;1.30;;;;;;;;;;5136681;27;20211;-49
2023/06/26 09:28:33;;;;;;;1.88;1.25;;;;;;;;;;5135334;27;20197;-49
2023/06/26 09:31:04;;;;;;;1.95;1.50;;;;;;;;;;5116647;27;20292;-49
2023/06/26 09:33:36;;;;;;;3.03;1.45;;;;;;;;;;5135052;27;20189;-49
2023/06/26 09:36:09;;;;;;;1.33;1.20;;;;;;;;;;5134840;27;20211;-50
2023/06/26 09:38:36;;;;;;;1.42;1.33;;;;;;;;;;5135631;27;20201;-51
2023/06/26 09:41:04;;;;;;;1.75;1.17;;;;;;;;;;5135071;27;20663;-50
2023/06/26 09:43:31;;;;;;;2.63;1.65;;;;;;;;;;5135425;27;20281;-49
2023/06/26 09:46:00;;;;;;;1.50;1.15;;;;;;;;;;5136681;27;20605;-49
2023/06/26 09:48:28;;;;;;;1.92;1.30;;;;;;;;;;5136719;27;20326;-48
2023/06/26 09:50:55;;;;;;;3.75;1.45;;;;;;;;;;5136658;27;20193;-48
2023/06/26 09:53:42;;;;;;;1.75;1.13;;;;;;;;;;5136327;27;20205;-48
2023/06/26 09:56:17;;;;;;;2.50;1.70;;;;;;;;;;5136427;27;20213;-48
2023/06/26 09:58:45;;;;;;;3.47;1.45;;;;;;;;;;5136116;27;20201;-47
2023/06/26 10:01:12;;;;;;;1.95;1.52;;;;;;;;;;5136335;27;20212;-48
2023/06/26 10:03:39;;;;;;;2.50;1.15;;;;;;;;;;5136063;27;20714;-49
2023/06/26 10:06:09;;;;;;;2.10;1.55;;;;;;;;;;5136306;27;20270;-49
2023/06/26 10:08:38;;;;;;;1.65;1.30;;;;;;;;;;5118047;27;20292;-47
2023/06/26 10:11:05;;;;;;;5.60;1.73;;;;;;;;;;5135764;27;20201;-49
2023/06/26 10:13:35;;;;;;;2.65;1.35;;;;;;;;;;5135526;27;20204;-48
2023/06/26 10:16:02;;;;;;;2.70;1.60;;;;;;;;;;5112326;27;20227;-47
2023/06/26 10:18:31;;;;;;;2.72;1.33;;;;;;;;;;5135464;27;20190;-47
2023/06/26 10:20:59;;;;;;;2.53;1.40;;;;;;;;;;5117021;27;20278;-49
2023/06/26 10:23:27;;;;;;;2.65;1.38;;;;;;;;;;5135099;27;20613;-48
2023/06/26 10:25:55;;;;;;;2.15;1.40;;;;;;;;;;5117066;27;20216;-48
2023/06/26 10:28:23;;;;;;;1.77;1.35;;;;;;;;;;5114810;27;20254;-47
2023/06/26 10:30:51;;;;;;;2.53;1.60;;;;;;;;;;5117502;27;20219;-48
2023/06/26 10:33:19;;;;;;;2.05;1.55;;;;;;;;;;5135107;27;20664;-48
2023/06/26 10:35:47;;;;;;;2.05;1.63;;;;;;;;;;5135381;27;20198;-48
2023/06/26 10:38:14;;;;;;;2.47;1.60;;;;;;;;;;5135663;27;20213;-48
2023/06/26 10:40:44;;;;;;;1.85;1.30;;;;;;;;;;5135603;27;20205;-47
2023/06/26 10:43:13;;;;;;;1.65;1.10;;;;;;;;;;5135559;27;20225;-47
2023/06/26 10:45:45;;;;;;;1.70;1.40;;;;;;;;;;5135542;27;20645;-47
2023/06/26 10:48:16;;;;;;;2.03;1.40;;;;;;;;;;5117278;27;20540;-46
2023/06/26 10:50:48;;;;;;;2.63;1.70;;;;;;;;;;5135088;27;20193;-49
2023/06/26 10:53:26;;;;;;;2.25;1.67;;;;;;;;;;5114738;27;20189;-48
2023/06/26 10:56:01;;;;;;;2.40;1.45;;;;;;;;;;5132047;27;20726;-50
2023/06/26 10:58:40;;;;;;;4.47;1.73;;;;;;;;;;5132249;27;20185;-46
2023/06/26 11:01:21;;;;;;;2.67;1.60;;;;;;;;;;5134845;27;20193;-49
2023/06/26 11:03:58;;;;;;;2.25;1.50;;;;;;;;;;5134148;27;20217;-49
2023/06/26 11:06:25;;;;;;;3.42;1.60;;;;;;;;;;5134411;27;20221;-47
2023/06/26 11:09:04;;;;;;;2.95;1.88;;;;;;;;;;5134307;27;20200;-49
2023/06/26 11:11:58;;;;;;;2.53;1.40;;;;;;;;;;5134497;27;20586;-48
2023/06/26 11:14:27;;;;;;;1.52;1.38;;;;;;;;;;5106552;28;20202;-49
2023/06/26 11:16:58;;;;;;;1.67;1.40;;;;;;;;;;5134120;27;20581;-50
2023/06/26 11:19:27;;;;;;;2.05;1.55;;;;;;;;;;5134017;27;20200;-52
2023/06/26 11:22:00;;;;;;;2.45;1.63;;;;;;;;;;5133669;27;20194;-52
2023/06/26 11:24:28;;;;;;;2.60;1.73;;;;;;;;;;5130352;27;20213;-56
2023/06/26 11:26:59;;;;;;;2.30;1.63;;;;;;;;;;5133473;27;20197;-55
2023/06/26 11:29:27;;;;;;;2.00;1.60;;;;;;;;;;5116614;27;20185;-55
2023/06/26 11:32:00;;;;;;;2.20;1.63;;;;;;;;;;5115594;27;20197;-46
2023/06/26 11:34:31;;;;;;;2.70;1.40;;;;;;;;;;5133769;27;20185;-57
2023/06/26 11:37:01;;;;;;;2.25;1.80;;;;;;;;;;5133811;27;20656;-56
2023/06/26 11:39:29;;;;;;;3.03;1.42;;;;;;;;;;5114866;28;20219;-54
2023/06/26 11:41:56;;;;;;;1.85;1.50;;;;;;;;;;5134432;28;20283;-55
2023/06/26 11:44:24;;;;;;;2.05;1.58;;;;;;;;;;5133411;27;20201;-57
2023/06/26 11:46:52;;;;;;;2.17;1.52;;;;;;;;;;5116294;28;20204;-56
2023/06/26 11:49:22;;;;;;;1.75;1.38;;;;;;;;;;5133399;28;20197;-55
2023/06/26 11:51:50;;;;;;;4.13;1.65;;;;;;;;;;5133448;28;20181;-57
2023/06/26 11:54:26;;;;;;;4.07;1.70;;;;;;;;;;5130989;28;20205;-57
2023/06/26 11:56:58;;;;;;;3.03;1.60;;;;;;;;;;5133841;28;20220;-57
2023/06/26 11:59:44;;;;;;;2.30;1.73;;;;;;;;;;5133776;28;20254;-58
2023/06/26 12:02:14;;;;;;;3.00;1.70;;;;;;;;;;5132921;28;20192;-55
2023/06/26 12:04:42;;;;;;;2.30;1.60;;;;;;;;;;5130684;28;20191;-53
2023/06/26 12:07:11;;;;;;;2.00;1.67;;;;;;;;;;5115427;28;20209;-56
2023/06/26 12:09:46;;;;;;;2.78;2.05;;;;;;;;;;5115285;28;20656;-57
2023/06/26 12:12:16;;;;;;;2.10;1.42;;;;;;;;;;5113945;28;20272;-56
2023/06/26 12:14:43;;;;;;;8.40;1.77;;;;;;;;;;5133361;28;20190;-57
2023/06/26 12:17:13;;;;;;;4.53;1.85;;;;;;;;;;5133990;28;20198;-52
2023/06/26 12:19:47;;;;;;;3.45;1.65;;;;;;;;;;5133719;28;20204;-57
2023/06/26 12:22:15;;;;;;;5.22;1.88;;;;;;;;;;5133976;28;20208;-57
2023/06/26 12:24:43;;;;;;;4.63;2.20;;;;;;;;;;5133859;28;20197;-57
2023/06/26 12:27:11;;;;;;;2.25;1.85;;;;;;;;;;5131842;27;20699;-58
2023/06/26 12:29:41;;;;;;;2.95;1.73;;;;;;;;;;5127626;27;20228;-56
2023/06/26 12:32:09;;;;;;;3.00;1.77;;;;;;;;;;5131666;28;20651;-58
2023/06/26 12:34:38;;;;;;;3.28;2.03;;;;;;;;;;5130414;28;20230;-55
2023/06/26 12:37:08;;;;;;;2.83;1.70;;;;;;;;;;5132253;28;20241;-56
2023/06/26 12:39:52;;;;;;;3.40;1.63;;;;;;;;;;5131311;28;20229;-57
2023/06/26 12:42:22;;;;;;;2.63;1.70;;;;;;;;;;5132258;28;20548;-57
2023/06/26 12:44:50;;;;;;;2.17;1.73;;;;;;;;;;5131239;28;20244;-54
2023/06/26 12:47:18;;;;;;;3.47;1.55;;;;;;;;;;5132126;28;20244;-51
2023/06/26 12:49:50;;;;;;;1.80;1.58;;;;;;;;;;5131953;28;20217;-53
2023/06/26 12:52:20;;;;;;;2.30;1.75;;;;;;;;;;5132234;28;20258;-53
2023/06/26 12:54:52;;;;;;;5.05;1.73;;;;;;;;;;5132918;27;20210;-54
2023/06/26 12:57:19;;;;;;;1.73;1.48;;;;;;;;;;5135929;27;20213;-50
2023/06/26 12:59:47;;;;;;;2.88;2.00;;;;;;;;;;5135507;27;20224;-57
2023/06/26 13:02:14;;;;;;;3.13;2.03;;;;;;;;;;5135744;27;20765;-51
2023/06/26 13:04:44;;;;;;;2.83;1.73;;;;;;;;;;5135214;27;20225;-55
2023/06/26 13:07:11;;;;;;;2.60;1.70;;;;;;;;;;5136260;27;20666;-57
2023/06/26 13:09:40;;;;;;;2.40;1.40;;;;;;;;;;5136294;27;20217;-52
2023/06/26 13:12:08;;;;;;;4.57;1.50;;;;;;;;;;5136645;27;20241;-51
2023/06/26 13:14:36;;;;;;;2.60;1.90;;;;;;;;;;5131654;27;20218;-52
2023/06/26 13:17:03;;;;;;;3.63;1.73;;;;;;;;;;5125166;27;20213;-54
2023/06/26 13:19:36;;;;;;;2.53;1.73;;;;;;;;;;5137369;27;20537;-51
2023/06/26 13:22:03;;;;;;;2.22;1.45;;;;;;;;;;5136898;27;20209;-53
2023/06/26 13:24:30;;;;;;;4.00;1.92;;;;;;;;;;5136834;27;20232;-50
2023/06/26 13:26:57;;;;;;;3.22;1.73;;;;;;;;;;5136858;27;20204;-50
2023/06/26 13:29:25;;;;;;;2.95;1.83;;;;;;;;;;5136876;27;20572;-51
2023/06/26 13:31:52;;;;;;;3.45;1.70;;;;;;;;;;5136919;27;20197;-52
2023/06/26 13:34:22;;;;;;;3.28;1.70;;;;;;;;;;5136726;27;20664;-51
2023/06/26 13:36:49;;;;;;;2.60;1.77;;;;;;;;;;5136624;27;20276;-53
2023/06/26 13:39:16;;;;;;;1.90;1.60;;;;;;;;;;5136943;27;20198;-49
2023/06/26 13:41:44;;;;;;;2.97;1.80;;;;;;;;;;5136917;27;20201;-49
2023/06/26 13:44:11;;;;;;;2.25;1.60;;;;;;;;;;5118634;27;20229;-53
2023/06/26 13:46:54;;;;;;;2.90;2.00;;;;;;;;;;5136915;27;20282;-53
2023/06/26 13:49:22;;;;;;;2.67;1.80;;;;;;;;;;5100591;27;20208;-50
2023/06/26 13:51:49;;;;;;;2.88;2.10;;;;;;;;;;5136179;27;20292;-49
2023/06/26 13:54:18;;;;;;;3.22;2.03;;;;;;;;;;5136802;27;20201;-50
2023/06/26 13:56:45;;;;;;;3.65;2.33;;;;;;;;;;5121404;27;20744;-50
2023/06/26 13:59:12;;;;;;;2.65;1.95;;;;;;;;;;5117066;27;20210;-53
2023/06/26 14:01:42;;;;;;;3.72;2.30;;;;;;;;;;5121878;27;20197;-50
2023/06/26 14:04:10;;;;;;;3.17;2.25;;;;;;;;;;5135900;27;20232;-49
2023/06/26 14:06:37;;;;;;;6.38;2.58;;;;;;;;;;5135492;27;20764;-51
2023/06/26 14:09:04;;;;;;;2.70;1.98;;;;;;;;;;5136263;27;20205;-53
2023/06/26 14:11:32;;;;;;;2.55;1.75;;;;;;;;;;5135927;27;20202;-49
2023/06/26 14:14:00;;;;;;;2.97;1.70;;;;;;;;;;5112679;27;20216;-50
2023/06/26 14:16:28;;;;;;;2.20;1.77;;;;;;;;;;5136084;27;20209;-48
2023/06/26 14:18:56;;;;;;;3.25;2.13;;;;;;;;;;5136142;27;20198;-49
2023/06/26 14:21:23;;;;;;;4.38;2.42;;;;;;;;;;5132214;27;20200;-48
2023/06/26 14:23:50;;;;;;;3.70;2.42;;;;;;;;;;5135654;27;20764;-49
2023/06/26 14:26:17;;;;;;;3.13;1.92;;;;;;;;;;5135970;27;20235;-49
2023/06/26 14:28:45;;;;;;;3.15;2.13;;;;;;;;;;5136077;27;20283;-51
2023/06/26 14:31:12;;;;;;;4.22;2.20;;;;;;;;;;5135433;27;20194;-48
2023/06/26 14:33:39;;;;;;;2.95;2.00;;;;;;;;;;5117964;27;20205;-50
2023/06/26 14:36:06;;;;;;;3.50;2.38;;;;;;;;;;5134372;27;20656;-49
2023/06/26 14:38:34;;;;;;;4.15;2.05;;;;;;;;;;5135338;27;20710;-51
2023/06/26 14:41:01;;;;;;;8.38;2.10;;;;;;;;;;5135451;27;20288;-49
2023/06/26 14:43:29;;;;;;;2.90;2.08;;;;;;;;;;5135036;27;20225;-49
2023/06/26 14:45:56;;;;;;;3.30;1.75;;;;;;;;;;5133942;27;20209;-52
2023/06/26 14:48:24;;;;;;;3.67;2.33;;;;;;;;;;5135144;27;20206;-50
2023/06/26 14:50:51;;;;;;;4.05;2.10;;;;;;;;;;5135297;27;20236;-48